Time;durP1;ratioP1;P1;durP2;ratioP2;P2;SDS_P1;SDS_P2;PMS_P1;PMS_P2;Temp;Humidity;BMP_temperature;BMP_pressure;BME280_temperature;BME280_humidity;BME280_pressure;Samples;Min_cycle;Max_cycle;Signal;HPM_P1;HPM_P2
2022/06/06 00:01:18;;;;;;;4.95;2.50;;;19.90;74.10;;;;;;5016430;28;20111;-74
2022/06/06 00:03:46;;;;;;;3.50;2.22;;;19.90;73.80;;;;;;5017222;28;20052;-75
2022/06/06 00:06:17;;;;;;;3.75;2.47;;;19.80;73.50;;;;;;5016355;28;20046;-73
2022/06/06 00:08:45;;;;;;;2.45;1.95;;;19.80;73.30;;;;;;5016430;28;20069;-74
2022/06/06 00:11:12;;;;;;;3.25;2.50;;;19.80;73.70;;;;;;5018676;28;20052;-74
2022/06/06 00:13:43;;;;;;;3.42;2.33;;;19.70;72.40;;;;;;5020192;28;20497;-74
2022/06/06 00:16:13;;;;;;;4.13;1.90;;;19.70;72.30;;;;;;5018855;28;20540;-75
2022/06/06 00:18:43;;;;;;;5.97;2.13;;;19.70;72.00;;;;;;5033609;28;20038;-75
2022/06/06 00:21:11;;;;;;;2.95;1.73;;;19.80;73.10;;;;;;5018837;28;20446;-74
2022/06/06 00:23:39;;;;;;;3.03;1.80;;;19.90;72.90;;;;;;5018939;28;20049;-75
2022/06/06 00:26:09;;;;;;;3.42;2.05;;;19.90;72.70;;;;;;5019422;28;20049;-75
2022/06/06 00:28:37;;;;;;;4.00;2.20;;;19.90;73.20;;;;;;5018837;28;20057;-75
2022/06/06 00:36:37;;;;;;;2.58;2.03;;;19.80;72.40;;;;;;5016271;28;20377;-75
2022/06/06 00:39:07;;;;;;;2.25;1.92;;;19.80;72.00;;;;;;5019007;28;20049;-74
2022/06/06 00:41:38;;;;;;;1.98;1.80;;;19.80;73.20;;;;;;5017297;28;20048;-74
2022/06/06 00:44:33;;;;;;;2.42;1.77;;;19.80;72.30;;;;;;5015721;28;20038;-75
2022/06/06 00:47:13;;;;;;;3.25;1.50;;;19.80;72.30;;;;;;5015135;28;20095;-74
2022/06/06 00:49:48;;;;;;;2.35;1.60;;;19.70;72.70;;;;;;5017625;28;20045;-73
2022/06/06 00:52:21;;;;;;;2.35;1.52;;;19.60;71.40;;;;;;5017455;28;20400;-75
2022/06/06 00:54:52;;;;;;;6.10;2.00;;;19.60;71.70;;;;;;5011939;28;20388;-74
2022/06/06 00:57:24;;;;;;;3.40;2.10;;;19.50;72.10;;;;;;5016849;28;20128;-74
2022/06/06 00:59:54;;;;;;;3.10;2.17;;;19.60;72.40;;;;;;5021807;28;20053;-74
2022/06/06 01:02:21;;;;;;;6.05;2.00;;;19.50;72.00;;;;;;5021012;28;20040;-75
2022/06/06 01:04:49;;;;;;;2.35;2.08;;;19.60;72.20;;;;;;5020837;28;22105;-74
2022/06/06 01:07:16;;;;;;;3.47;2.10;;;19.40;71.90;;;;;;5023262;28;20054;-74
2022/06/06 01:09:43;;;;;;;2.55;2.30;;;19.50;72.40;;;;;;5016192;28;20033;-74
2022/06/06 01:12:15;;;;;;;4.13;2.03;;;19.50;72.50;;;;;;5021166;28;20045;-74
2022/06/06 01:14:48;;;;;;;4.30;1.98;;;19.50;73.60;;;;;;5022321;28;20049;-75
2022/06/06 01:17:31;;;;;;;4.00;2.20;;;19.60;73.20;;;;;;5022356;28;20148;-74
2022/06/06 01:20:40;;;;;;;3.15;2.30;;;19.50;72.80;;;;;;5020980;28;20037;-74
2022/06/06 01:23:36;;;;;;;2.33;2.10;;;19.50;73.80;;;;;;5000863;28;22568;-74
2022/06/06 01:26:24;;;;;;;3.20;2.63;;;19.50;73.20;;;;;;5038344;28;20085;-74
2022/06/06 01:29:03;;;;;;;3.22;2.35;;;19.50;74.10;;;;;;5017410;28;20076;-74
2022/06/06 01:31:48;;;;;;;5.13;2.40;;;19.50;74.30;;;;;;5020121;28;20044;-74
2022/06/06 01:34:29;;;;;;;3.20;2.33;;;19.40;74.60;;;;;;5020113;28;20046;-74
2022/06/06 01:36:57;;;;;;;2.97;2.22;;;19.50;77.00;;;;;;5018944;28;20503;-74
2022/06/06 01:39:26;;;;;;;3.72;2.42;;;19.40;75.20;;;;;;5019650;28;20049;-74
2022/06/06 01:42:02;;;;;;;4.72;2.97;;;19.30;75.20;;;;;;5018981;28;20049;-74
2022/06/06 01:44:34;;;;;;;6.97;2.40;;;19.30;75.40;;;;;;5018221;28;20381;-75
2022/06/06 01:47:04;;;;;;;2.90;2.23;;;19.20;76.20;;;;;;5016920;28;20923;-74
2022/06/06 01:49:33;;;;;;;3.67;2.45;;;19.10;76.00;;;;;;5035420;28;20075;-74
2022/06/06 01:52:05;;;;;;;4.53;2.35;;;18.90;77.00;;;;;;5019298;28;20067;-74
2022/06/06 01:54:32;;;;;;;5.28;2.90;;;19.00;77.60;;;;;;5018879;28;20562;-74
2022/06/06 01:57:02;;;;;;;6.57;3.20;;;19.00;78.40;;;;;;5019057;28;20048;-74
2022/06/06 01:59:30;;;;;;;3.67;2.92;;;19.00;77.80;;;;;;5019636;28;20049;-74
2022/06/06 02:01:57;;;;;;;3.00;2.70;;;19.10;77.70;;;;;;5017112;28;20041;-73
2022/06/06 02:04:24;;;;;;;3.53;2.05;;;19.00;77.50;;;;;;5022318;28;20136;-74
2022/06/06 02:06:52;;;;;;;3.78;2.55;;;19.00;77.40;;;;;;5019766;28;20045;-74
2022/06/06 02:09:19;;;;;;;3.05;2.50;;;18.90;78.40;;;;;;5017548;28;20136;-74
2022/06/06 02:11:46;;;;;;;4.38;2.60;;;18.90;77.90;;;;;;5018066;28;20116;-74
2022/06/06 02:14:14;;;;;;;2.88;2.55;;;19.00;77.70;;;;;;5021239;28;20050;-74
2022/06/06 02:16:41;;;;;;;3.53;2.03;;;19.00;78.10;;;;;;5015180;28;20045;-74
2022/06/06 02:19:11;;;;;;;5.72;2.83;;;19.10;78.10;;;;;;5015270;28;20046;-74
2022/06/06 02:21:38;;;;;;;3.42;2.10;;;19.20;78.50;;;;;;5017010;28;20175;-74
2022/06/06 02:24:06;;;;;;;3.75;2.45;;;19.30;79.70;;;;;;5020138;28;20050;-74
2022/06/06 02:26:33;;;;;;;4.25;2.00;;;19.30;80.80;;;;;;5017385;28;20055;-74
2022/06/06 02:29:01;;;;;;;4.80;2.00;;;19.30;79.60;;;;;;5018292;28;20049;-75
2022/06/06 02:31:29;;;;;;;4.40;2.38;;;19.30;78.90;;;;;;5019400;28;20045;-74
2022/06/06 02:33:56;;;;;;;3.65;2.70;;;19.30;78.10;;;;;;5014300;28;20038;-74
2022/06/06 02:36:24;;;;;;;7.18;2.50;;;19.30;78.80;;;;;;5014474;28;23177;-74
2022/06/06 02:38:51;;;;;;;2.63;2.35;;;19.20;78.10;;;;;;5017696;28;20131;-74
2022/06/06 02:41:18;;;;;;;5.22;2.33;;;19.10;78.50;;;;;;5019664;28;20042;-74
2022/06/06 02:43:45;;;;;;;2.75;2.40;;;19.20;78.40;;;;;;5020673;28;20120;-74
2022/06/06 02:46:14;;;;;;;8.68;2.80;;;19.10;78.20;;;;;;5018682;28;20120;-74
2022/06/06 02:48:41;;;;;;;3.30;2.45;;;19.20;79.10;;;;;;5019145;28;20475;-74
2022/06/06 02:51:09;;;;;;;2.95;2.55;;;19.20;77.60;;;;;;5021026;28;20045;-73
2022/06/06 02:53:36;;;;;;;3.00;2.58;;;19.20;79.00;;;;;;5018721;28;20122;-73
2022/06/06 02:56:04;;;;;;;4.50;2.80;;;19.20;80.30;;;;;;5019289;28;20374;-74
2022/06/06 02:58:31;;;;;;;3.80;2.63;;;19.20;80.50;;;;;;5016502;28;20048;-74
2022/06/06 03:01:01;;;;;;;3.83;2.63;;;19.20;80.40;;;;;;5019665;28;20034;-74
2022/06/06 03:03:29;;;;;;;3.15;2.10;;;19.20;83.10;;;;;;5020905;28;21709;-74
2022/06/06 03:06:07;;;;;;;3.10;2.50;;;19.20;83.50;;;;;;5016816;28;20508;-74
2022/06/06 03:08:55;;;;;;;3.17;2.80;;;19.20;82.40;;;;;;5017271;28;20152;-75
2022/06/06 03:11:47;;;;;;;2.92;2.60;;;19.10;81.90;;;;;;5017841;28;20041;-74
2022/06/06 03:14:39;;;;;;;3.10;2.80;;;19.00;80.80;;;;;;5017687;28;20145;-74
2022/06/06 03:20:47;;;;;;;3.65;2.75;;;19.00;81.20;;;;;;5018062;28;20084;-73
2022/06/06 03:23:14;;;;;;;4.28;2.97;;;18.90;80.70;;;;;;5031707;28;20057;-74
2022/06/06 03:25:46;;;;;;;2.58;2.20;;;19.00;83.20;;;;;;5000207;28;20053;-74
2022/06/06 03:28:52;;;;;;;3.58;2.63;;;19.00;84.00;;;;;;5017346;28;20068;-73
2022/06/06 03:31:38;;;;;;;3.33;2.42;;;19.10;84.00;;;;;;5018193;28;20060;-74
2022/06/06 03:34:24;;;;;;;4.65;2.78;;;19.00;84.80;;;;;;5014261;28;20044;-74
2022/06/06 03:37:24;;;;;;;3.85;2.55;;;19.00;82.20;;;;;;5017453;28;20184;-74
2022/06/06 03:40:09;;;;;;;4.38;2.90;;;19.00;81.50;;;;;;5020183;28;20041;-74
2022/06/06 03:42:49;;;;;;;4.03;2.85;;;19.00;81.10;;;;;;5019115;28;20095;-74
2022/06/06 03:45:22;;;;;;;3.70;2.70;;;19.00;80.60;;;;;;5018734;28;20619;-73
2022/06/06 03:48:11;;;;;;;3.47;2.55;;;19.10;80.50;;;;;;5017769;28;20929;-74
2022/06/06 03:50:44;;;;;;;4.43;2.30;;;19.10;80.20;;;;;;5018699;28;20045;-73
2022/06/06 03:53:15;;;;;;;;;;;19.00;78.90;;;;;;5002042;28;20046;-73
2022/06/06 03:56:13;;;;;;;4.47;2.58;;;19.10;79.10;;;;;;5048295;28;19928;-73
2022/06/06 03:58:42;;;;;;;4.88;2.40;;;19.10;78.50;;;;;;5020060;28;20042;-74
2022/06/06 04:01:13;;;;;;;4.93;2.47;;;19.10;78.60;;;;;;5016381;28;20099;-74
2022/06/06 04:03:44;;;;;;;2.85;2.53;;;19.00;78.30;;;;;;5018137;28;20069;-73
2022/06/06 04:06:13;;;;;;;4.17;2.53;;;19.10;79.00;;;;;;5015159;28;20152;-74
2022/06/06 04:08:40;;;;;;;3.15;2.55;;;19.00;78.40;;;;;;5007930;28;20582;-74
2022/06/06 04:11:30;;;;;;;3.22;2.40;;;19.10;79.10;;;;;;5016406;28;20042;-74
2022/06/06 04:14:33;;;;;;;4.57;2.70;;;19.10;79.10;;;;;;5018724;28;20034;-72
2022/06/06 04:17:06;;;;;;;3.17;2.40;;;19.10;79.10;;;;;;4997754;28;20053;-73
2022/06/06 04:19:58;;;;;;;4.03;3.13;;;19.10;79.50;;;;;;5001022;28;20136;-74
2022/06/06 04:22:53;;;;;;;4.07;2.80;;;19.10;79.00;;;;;;5032370;28;20451;-73
2022/06/06 04:25:45;;;;;;;4.03;2.92;;;19.10;79.40;;;;;;5032551;28;20069;-74
2022/06/06 04:28:18;;;;;;;4.07;3.10;;;19.20;78.80;;;;;;5017815;28;20049;-74
2022/06/06 04:31:07;;;;;;;4.22;2.60;;;19.00;79.70;;;;;;5003055;28;20053;-73
2022/06/06 04:33:39;;;;;;;2.90;2.60;;;19.00;78.90;;;;;;5022762;28;20048;-74
2022/06/06 04:36:39;;;;;;;4.22;3.17;;;19.00;79.50;;;;;;5020428;28;20045;-74
2022/06/06 04:39:20;;;;;;;2.83;2.55;;;19.10;79.50;;;;;;5021396;28;20049;-74
2022/06/06 04:42:08;;;;;;;5.22;2.78;;;19.20;80.00;;;;;;5036134;28;20041;-74
2022/06/06 04:44:41;;;;;;;4.53;2.85;;;19.40;80.20;;;;;;5020844;28;20420;-74
2022/06/06 04:47:25;;;;;;;4.70;2.85;;;19.50;80.10;;;;;;5021880;28;20046;-74
2022/06/06 04:49:56;;;;;;;3.30;2.65;;;19.50;80.60;;;;;;5021618;28;20069;-74
2022/06/06 04:52:24;;;;;;;4.63;3.08;;;19.60;80.40;;;;;;5021615;28;20045;-74
2022/06/06 04:54:53;;;;;;;3.55;2.40;;;19.60;79.40;;;;;;5016887;28;20037;-74
2022/06/06 04:57:21;;;;;;;4.18;2.65;;;19.60;79.60;;;;;;5018108;28;20046;-74
2022/06/06 04:59:50;;;;;;;10.45;3.45;;;19.60;79.60;;;;;;5022474;28;20156;-74
2022/06/06 05:02:21;;;;;;;6.05;2.85;;;19.60;79.80;;;;;;4994386;28;20049;-74
2022/06/06 05:04:48;;;;;;;4.53;3.03;;;19.60;79.80;;;;;;5005163;28;20435;-74
2022/06/06 05:07:50;;;;;;;3.92;2.67;;;19.70;79.50;;;;;;4991278;28;20050;-74
2022/06/06 05:10:56;;;;;;;4.55;2.88;;;19.70;79.90;;;;;;4981029;28;20728;-74
2022/06/06 05:13:43;;;;;;;3.33;2.58;;;19.80;79.70;;;;;;4981373;28;20271;-74
2022/06/06 05:16:39;;;;;;;3.70;2.80;;;19.70;80.10;;;;;;4963647;28;20060;-74
2022/06/06 05:19:22;;;;;;;4.10;3.10;;;19.70;80.50;;;;;;4969979;28;20076;-74
2022/06/06 05:22:06;;;;;;;3.45;2.58;;;19.80;80.70;;;;;;4961796;28;22434;-74
2022/06/06 05:24:33;;;;;;;;;;;19.80;80.80;;;;;;4970968;28;20128;-74
2022/06/06 05:27:03;;;;;;;3.47;2.92;;;19.90;80.90;;;;;;4961146;28;19936;-75
2022/06/06 05:29:58;;;;;;;3.30;2.88;;;20.00;81.00;;;;;;4970185;28;20844;-73
2022/06/06 05:32:37;;;;;;;4.75;3.10;;;20.00;79.90;;;;;;4971180;28;20093;-74
2022/06/06 05:35:14;;;;;;;4.38;3.25;;;20.00;79.50;;;;;;4970638;28;20864;-74
2022/06/06 05:37:48;;;;;;;6.05;3.03;;;20.10;81.10;;;;;;4962459;28;20159;-74
2022/06/06 05:41:01;;;;;;;4.60;3.15;;;20.20;78.80;;;;;;4964027;28;20060;-74
2022/06/06 05:43:50;;;;;;;4.03;3.00;;;20.30;78.90;;;;;;4975365;28;20417;-74
2022/06/06 05:46:17;;;;;;;4.80;3.35;;;20.40;78.10;;;;;;4974057;28;20042;-74
2022/06/06 05:49:10;;;;;;;4.45;3.00;;;20.40;77.40;;;;;;4970618;28;21036;-74
2022/06/06 05:51:56;;;;;;;5.25;2.90;;;20.50;77.10;;;;;;4972358;28;20046;-74
2022/06/06 05:54:39;;;;;;;3.60;2.92;;;20.70;77.60;;;;;;4970193;28;20046;-74
2022/06/06 05:57:15;;;;;;;4.28;2.83;;;21.00;76.80;;;;;;4988682;28;20049;-74
2022/06/06 06:00:00;;;;;;;3.47;3.00;;;21.10;76.70;;;;;;4973369;28;20053;-74
2022/06/06 06:02:46;;;;;;;4.72;3.00;;;20.80;74.30;;;;;;4967747;28;20192;-75
2022/06/06 06:05:34;;;;;;;4.75;2.90;;;20.60;75.50;;;;;;4955820;28;20050;-75
2022/06/06 06:08:39;;;;;;;4.68;2.60;;;20.50;74.90;;;;;;4973521;28;20049;-74
2022/06/06 06:11:37;;;;;;;3.75;2.90;;;20.40;74.40;;;;;;4972498;28;20089;-73
2022/06/06 06:14:19;;;;;;;3.60;3.08;;;20.50;76.10;;;;;;4990938;28;20390;-74
2022/06/06 06:16:52;;;;;;;3.90;2.88;;;20.50;76.40;;;;;;5010734;28;20061;-74
2022/06/06 06:19:22;;;;;;;;;;;20.40;75.30;;;;;;4992861;28;20887;-74
2022/06/06 06:21:57;;;;;;;4.78;3.05;;;20.40;75.70;;;;;;4991889;28;19928;-74
2022/06/06 06:24:31;;;;;;;4.35;2.90;;;20.30;76.10;;;;;;4994286;28;20103;-74
2022/06/06 06:27:03;;;;;;;3.90;3.30;;;20.40;76.10;;;;;;4998319;28;20054;-74
2022/06/06 06:29:31;;;;;;;3.40;2.60;;;20.50;76.80;;;;;;4993678;28;20163;-74
2022/06/06 06:32:10;;;;;;;4.10;2.67;;;20.50;76.50;;;;;;4994740;28;20064;-74
2022/06/06 06:35:01;;;;;;;4.07;2.75;;;20.50;75.40;;;;;;4988966;28;20618;-74
2022/06/06 06:37:44;;;;;;;4.07;2.92;;;20.50;75.50;;;;;;4978785;28;20049;-74
2022/06/06 06:40:34;;;;;;;4.25;2.85;;;20.60;76.30;;;;;;4999855;28;20159;-74
2022/06/06 06:43:10;;;;;;;3.72;2.90;;;20.50;76.50;;;;;;5013275;28;20053;-73
2022/06/06 06:45:49;;;;;;;4.47;3.20;;;20.60;75.20;;;;;;4996183;28;20204;-73
2022/06/06 06:48:38;;;;;;;5.22;3.33;;;20.60;75.30;;;;;;4996453;28;21102;-75
2022/06/06 06:51:05;;;;;;;6.53;4.25;;;20.70;75.50;;;;;;4996874;28;20061;-75
2022/06/06 06:53:36;;;;;;;7.07;4.30;;;20.90;75.20;;;;;;4992812;28;20680;-74
2022/06/06 06:56:18;;;;;;;4.22;3.05;;;21.00;75.80;;;;;;4996720;28;20041;-75
2022/06/06 06:59:00;;;;;;;3.92;2.88;;;21.10;75.00;;;;;;4998421;28;20057;-75
2022/06/06 07:08:32;;;;;;;2.83;2.40;;;21.40;74.20;;;;;;4998564;28;20610;-75
2022/06/06 07:10:53;;;;;;;4.40;3.38;;;21.70;71.60;;;;;;4994703;28;20049;-73
2022/06/06 07:13:38;;;;;;;3.35;3.05;;;22.40;71.80;;;;;;4996507;28;20152;-74
2022/06/06 07:16:20;;;;;;;3.85;3.15;;;22.50;70.60;;;;;;4995914;28;20057;-73
2022/06/06 07:19:11;;;;;;;4.95;3.08;;;22.70;68.10;;;;;;4989224;28;20705;-74
2022/06/06 07:21:40;;;;;;;4.40;3.13;;;22.90;68.60;;;;;;5009406;28;20176;-74
2022/06/06 07:24:10;;;;;;;4.10;2.55;;;23.10;68.70;;;;;;4993408;28;20138;-73
2022/06/06 07:26:43;;;;;;;5.15;3.13;;;22.90;64.30;;;;;;4988527;28;20891;-74
2022/06/06 07:29:12;;;;;;;;;;;23.10;65.40;;;;;;4997005;28;20052;-74
2022/06/06 07:31:58;;;;;;;3.67;2.85;;;23.00;66.20;;;;;;4996689;28;19929;-75
2022/06/06 07:34:31;;;;;;;2.92;2.30;;;23.00;66.30;;;;;;5010498;28;20049;-73
2022/06/06 07:37:11;;;;;;;4.70;2.15;;;23.20;65.60;;;;;;4981673;28;20055;-74
2022/06/06 07:40:02;;;;;;;2.67;2.42;;;23.40;63.30;;;;;;4988182;28;20052;-73
2022/06/06 07:42:29;;;;;;;3.97;2.80;;;23.20;63.40;;;;;;4995193;28;20049;-75
2022/06/06 07:45:14;;;;;;;;;;;23.00;66.10;;;;;;4994199;28;20088;-75
2022/06/06 07:48:06;;;;;;;3.20;2.50;;;23.20;65.40;;;;;;5024690;28;20087;-74
2022/06/06 07:50:45;;;;;;;4.03;2.65;;;23.20;64.20;;;;;;4992468;28;20045;-74
2022/06/06 07:53:30;;;;;;;5.13;2.30;;;23.40;64.40;;;;;;4990730;28;20515;-74
2022/06/06 07:56:24;;;;;;;2.65;2.40;;;23.60;62.70;;;;;;5009493;28;20059;-74
2022/06/06 07:59:06;;;;;;;3.35;2.20;;;23.60;62.20;;;;;;4993335;28;20254;-74
2022/06/06 08:02:00;;;;;;;2.88;2.60;;;23.50;62.80;;;;;;4992016;28;20049;-75
2022/06/06 08:04:54;;;;;;;3.60;2.75;;;23.70;64.10;;;;;;5010341;28;20057;-76
2022/06/06 08:07:54;;;;;;;4.63;2.38;;;23.40;64.80;;;;;;5010940;28;20124;-74
2022/06/06 08:10:35;;;;;;;3.90;2.70;;;23.50;63.00;;;;;;4996746;28;20058;-75
2022/06/06 08:13:52;;;;;;;6.40;3.00;;;23.60;61.40;;;;;;5020757;28;20561;-75
2022/06/06 08:16:31;;;;;;;4.20;2.83;;;23.80;60.80;;;;;;5007903;28;20057;-74
2022/06/06 08:19:28;;;;;;;6.18;2.88;;;23.90;60.10;;;;;;4992023;28;20154;-74
2022/06/06 08:21:56;;;;;;;2.83;1.95;;;24.00;61.50;;;;;;4985335;28;20091;-75
2022/06/06 08:24:35;;;;;;;3.75;2.70;;;23.90;59.60;;;;;;4993929;28;20088;-73
2022/06/06 08:27:20;;;;;;;3.42;2.60;;;24.00;60.90;;;;;;4992467;28;20060;-75
2022/06/06 08:29:48;;;;;;;3.58;2.35;;;24.30;62.60;;;;;;4991792;28;20054;-74
2022/06/06 08:32:16;;;;;;;3.00;2.33;;;24.30;57.60;;;;;;4990451;28;20059;-73
2022/06/06 08:34:43;;;;;;;3.67;2.03;;;24.10;58.10;;;;;;4988226;28;20045;-73
2022/06/06 08:37:32;;;;;;;2.10;1.77;;;24.30;58.50;;;;;;5005369;28;20215;-75
2022/06/06 08:40:28;;;;;;;2.50;1.67;;;24.30;56.30;;;;;;4980817;28;20049;-73
2022/06/06 08:43:00;;;;;;;1.80;1.60;;;24.30;57.90;;;;;;4976311;28;20060;-74
2022/06/06 08:45:27;;;;;;;1.90;1.70;;;24.50;57.00;;;;;;4988271;28;20411;-74
2022/06/06 08:48:30;;;;;;;3.92;1.67;;;24.40;56.20;;;;;;4990343;28;20045;-74
2022/06/06 08:51:23;;;;;;;2.55;1.80;;;24.20;55.40;;;;;;4991443;28;20053;-74
2022/06/06 08:54:15;;;;;;;3.13;1.95;;;24.20;58.40;;;;;;4990745;28;20041;-75
2022/06/06 08:57:11;;;;;;;2.40;1.60;;;24.30;57.40;;;;;;4984391;28;20083;-75
2022/06/06 09:00:01;;;;;;;2.17;1.98;;;24.30;56.60;;;;;;5004867;28;20053;-75
2022/06/06 09:03:06;;;;;;;2.25;1.85;;;24.50;57.50;;;;;;4986126;28;20054;-75
2022/06/06 09:05:59;;;;;;;2.70;1.63;;;24.60;57.20;;;;;;4990151;28;20068;-74
2022/06/06 09:08:51;;;;;;;2.65;1.77;;;24.50;55.90;;;;;;4971372;28;20058;-74
2022/06/06 09:11:40;;;;;;;3.25;1.73;;;24.70;56.70;;;;;;4980172;28;20831;-73
2022/06/06 09:14:16;;;;;;;5.57;3.10;;;24.70;57.60;;;;;;5020968;28;20057;-75
2022/06/06 09:17:21;;;;;;;4.78;2.97;;;24.60;55.30;;;;;;4994685;28;20057;-74
2022/06/06 09:19:49;;;;;;;3.17;2.35;;;24.50;55.80;;;;;;5008861;28;20146;-74
2022/06/06 09:22:44;;;;;;;2.75;1.85;;;24.50;54.60;;;;;;5011801;28;22527;-74
2022/06/06 09:25:52;;;;;;;2.60;1.73;;;24.40;53.60;;;;;;4971024;28;20057;-74
2022/06/06 09:28:37;;;;;;;3.25;1.90;;;24.60;56.20;;;;;;4987530;28;20051;-73
2022/06/06 09:31:35;;;;;;;2.38;1.98;;;24.80;56.80;;;;;;5003546;28;20041;-72
2022/06/06 09:34:43;;;;;;;2.10;1.90;;;24.80;55.40;;;;;;4963884;28;20144;-73
2022/06/06 09:37:37;;;;;;;2.90;2.10;;;24.70;54.30;;;;;;4942144;28;20051;-73
2022/06/06 09:40:39;;;;;;;2.40;2.20;;;24.70;54.70;;;;;;4923906;28;20059;-74
2022/06/06 09:43:25;;;;;;;5.45;2.30;;;24.70;54.70;;;;;;4943233;28;20046;-73
2022/06/06 09:46:10;;;;;;;2.85;2.28;;;24.80;56.10;;;;;;5004533;28;20169;-73
2022/06/06 09:49:13;;;;;;;3.10;2.03;;;24.80;56.40;;;;;;4984866;28;20168;-72
2022/06/06 09:52:18;;;;;;;4.07;2.38;;;24.80;55.60;;;;;;5005769;28;20182;-74
2022/06/06 10:01:31;;;;;;;3.40;1.67;;;25.10;55.30;;;;;;4994556;28;20045;-74
2022/06/06 10:04:02;;;;;;;4.13;2.63;;;24.90;53.10;;;;;;4988230;28;20057;-74
2022/06/06 10:07:06;;;;;;;2.47;2.22;;;24.80;56.20;;;;;;4987678;28;20060;-76
2022/06/06 10:10:09;;;;;;;4.57;2.10;;;25.00;55.60;;;;;;4991828;28;20060;-74
2022/06/06 10:13:03;;;;;;;2.67;1.85;;;24.70;54.60;;;;;;4976719;28;20521;-72
2022/06/06 10:15:56;;;;;;;3.67;2.40;;;24.60;54.50;;;;;;4967174;28;20095;-74
2022/06/06 10:18:54;;;;;;;3.95;2.30;;;24.70;56.60;;;;;;4989886;28;20056;-75
2022/06/06 10:21:25;;;;;;;2.22;1.73;;;24.90;57.00;;;;;;5002910;28;20133;-74
2022/06/06 10:24:27;;;;;;;3.22;2.58;;;25.10;54.90;;;;;;4986057;28;22536;-72
2022/06/06 10:27:02;;;;;;;3.35;2.30;;;25.00;53.20;;;;;;4978165;28;20046;-73
2022/06/06 10:33:02;;;;;;;4.43;1.80;;;25.00;52.10;;;;;;5001091;28;20102;-73
2022/06/06 10:35:58;;;;;;;2.20;1.30;;;24.90;54.60;;;;;;4985367;28;22865;-73
2022/06/06 10:38:47;;;;;;;3.38;1.40;;;24.80;50.60;;;;;;4983175;28;20072;-75
2022/06/06 10:41:23;;;;;;;1.60;1.50;;;25.00;51.70;;;;;;4973894;28;20064;-74
2022/06/06 10:44:20;;;;;;;1.70;1.58;;;25.10;51.70;;;;;;4992025;28;20099;-74
2022/06/06 10:47:18;;;;;;;1.33;1.23;;;25.00;53.70;;;;;;4989061;28;20057;-74
2022/06/06 10:50:04;;;;;;;2.22;1.83;;;25.10;52.50;;;;;;4986599;28;20167;-73
2022/06/06 10:52:51;;;;;;;1.95;1.52;;;25.20;54.40;;;;;;4976083;28;20061;-73
2022/06/06 10:55:34;;;;;;;1.65;1.10;;;25.30;53.40;;;;;;4966729;28;22333;-74
2022/06/06 10:58:50;;;;;;;2.05;1.42;;;25.30;50.10;;;;;;4970965;28;20049;-74
2022/06/06 11:01:52;;;;;;;1.90;1.30;;;25.40;53.40;;;;;;4954482;28;20054;-73
2022/06/06 11:04:19;;;;;;;;;;;25.40;50.60;;;;;;4984344;28;20056;-74
2022/06/06 11:07:03;;;;;;;1.50;1.30;;;25.30;51.10;;;;;;4997669;28;21126;-74
2022/06/06 11:09:52;;;;;;;1.30;1.20;;;25.40;52.20;;;;;;4977511;28;20052;-74
2022/06/06 11:12:44;;;;;;;1.10;0.73;;;25.40;50.20;;;;;;5003557;28;20054;-75
2022/06/06 11:15:11;;;;;;;2.05;1.30;;;25.40;49.30;;;;;;4991575;28;20887;-76
2022/06/06 11:18:15;;;;;;;2.03;1.50;;;25.40;51.10;;;;;;4993123;28;21051;-76
2022/06/06 11:21:29;;;;;;;1.85;1.75;;;25.40;53.00;;;;;;4990612;28;20669;-75
2022/06/06 11:24:27;;;;;;;2.35;1.40;;;25.60;52.10;;;;;;4985681;28;20182;-74
2022/06/06 11:27:32;;;;;;;3.20;1.17;;;25.60;50.60;;;;;;5008558;28;20184;-75
2022/06/06 11:30:07;;;;;;;1.30;1.20;;;25.70;51.90;;;;;;4993503;28;20057;-75
2022/06/06 11:32:53;;;;;;;2.20;1.52;;;25.40;51.10;;;;;;4994721;28;20050;-75
2022/06/06 11:35:23;;;;;;;1.20;0.80;;;25.30;51.30;;;;;;4984106;28;20049;-73
2022/06/06 11:37:59;;;;;;;2.13;1.42;;;25.20;50.30;;;;;;4992385;28;20080;-75
2022/06/06 11:40:45;;;;;;;1.70;0.85;;;25.40;48.30;;;;;;4988196;28;20065;-74
2022/06/06 11:43:36;;;;;;;0.73;0.65;;;25.50;48.40;;;;;;5005472;28;20095;-75
2022/06/06 11:46:37;;;;;;;1.60;0.85;;;25.60;48.80;;;;;;4986793;28;20057;-75
2022/06/06 11:49:41;;;;;;;0.90;0.75;;;25.80;50.00;;;;;;4988926;28;20059;-75
2022/06/06 11:52:18;;;;;;;1.05;0.88;;;25.80;50.70;;;;;;4982506;28;20045;-75
2022/06/06 11:55:15;;;;;;;1.95;1.00;;;25.70;50.40;;;;;;4989661;28;20054;-74
2022/06/06 11:58:01;;;;;;;2.25;0.82;;;25.80;49.60;;;;;;4994124;28;20045;-75
2022/06/06 12:00:49;;;;;;;0.88;0.60;;;25.70;48.50;;;;;;4996835;28;20135;-74
2022/06/06 12:03:53;;;;;;;1.20;1.10;;;25.80;47.10;;;;;;5007021;28;20412;-73
2022/06/06 12:06:37;;;;;;;0.70;0.68;;;25.90;47.50;;;;;;4990903;28;20050;-75
2022/06/06 12:09:07;;;;;;;1.98;0.90;;;25.80;48.60;;;;;;4984668;28;20064;-75
2022/06/06 12:11:56;;;;;;;0.95;0.75;;;25.90;49.10;;;;;;4993509;28;20053;-75
2022/06/06 12:14:32;;;;;;;0.80;0.75;;;25.80;48.90;;;;;;4991635;28;20210;-75
2022/06/06 12:17:09;;;;;;;1.27;1.10;;;25.80;49.40;;;;;;5023357;28;20061;-76
2022/06/06 12:20:00;;;;;;;1.98;1.40;;;25.90;49.20;;;;;;4994240;28;20050;-74
2022/06/06 12:22:39;;;;;;;1.23;1.13;;;25.90;49.10;;;;;;4989396;28;20045;-75
2022/06/06 12:25:25;;;;;;;1.20;1.10;;;25.90;49.40;;;;;;4994008;28;22534;-74
2022/06/06 12:27:54;;;;;;;1.55;1.20;;;25.90;51.00;;;;;;4993096;28;20057;-74
2022/06/06 12:30:31;;;;;;;2.10;1.42;;;25.90;49.00;;;;;;4993534;28;20960;-73
2022/06/06 12:33:02;;;;;;;2.65;1.55;;;25.90;50.00;;;;;;4993296;28;20050;-74
2022/06/06 12:35:52;;;;;;;1.67;0.93;;;26.00;48.50;;;;;;4991113;28;20045;-75
2022/06/06 12:38:29;;;;;;;1.52;1.20;;;26.10;49.30;;;;;;4990306;28;20076;-74
2022/06/06 12:41:41;;;;;;;2.05;1.70;;;26.10;47.90;;;;;;4992971;28;20060;-75
2022/06/06 12:44:34;;;;;;;1.30;1.20;;;26.00;49.90;;;;;;4989340;28;20054;-76
2022/06/06 12:47:31;;;;;;;1.60;1.20;;;26.10;48.10;;;;;;4987507;28;21126;-74
2022/06/06 12:50:31;;;;;;;1.30;1.17;;;26.10;48.40;;;;;;4980485;28;20060;-74
2022/06/06 12:53:24;;;;;;;1.70;1.17;;;26.20;48.10;;;;;;4996760;28;20074;-76
2022/06/06 12:56:20;;;;;;;1.75;1.00;;;26.10;46.90;;;;;;4970114;28;20060;-75
2022/06/06 12:59:06;;;;;;;2.22;1.52;;;26.10;47.30;;;;;;4978692;28;20756;-74
2022/06/06 13:02:00;;;;;;;1.50;1.30;;;26.20;47.10;;;;;;4991848;28;20626;-75
2022/06/06 13:05:08;;;;;;;2.58;1.33;;;26.30;49.40;;;;;;4975103;28;20096;-76
2022/06/06 13:07:57;;;;;;;1.20;0.90;;;26.20;46.90;;;;;;4965850;28;20140;-76
2022/06/06 13:10:34;;;;;;;4.00;0.90;;;26.20;45.90;;;;;;4976706;28;20139;-76
2022/06/06 13:13:13;;;;;;;2.60;1.25;;;26.40;47.20;;;;;;4971954;28;20085;-75
2022/06/06 13:16:07;;;;;;;2.95;1.20;;;26.30;49.50;;;;;;4991406;28;20567;-74
2022/06/06 13:19:16;;;;;;;1.73;1.60;;;26.30;48.50;;;;;;5016372;28;20045;-76
2022/06/06 13:22:00;;;;;;;1.92;1.30;;;26.30;48.60;;;;;;4971196;28;20524;-75
2022/06/06 13:24:52;;;;;;;2.15;1.25;;;26.30;49.20;;;;;;4962017;28;20129;-76
2022/06/06 13:27:49;;;;;;;1.97;1.27;;;26.30;46.00;;;;;;4961711;28;20062;-76
2022/06/06 13:30:25;;;;;;;1.48;1.30;;;26.40;47.00;;;;;;4977679;28;20053;-75
2022/06/06 13:33:15;;;;;;;3.00;1.30;;;26.40;47.20;;;;;;4968772;28;20088;-76
2022/06/06 13:36:19;;;;;;;2.08;1.00;;;26.50;48.50;;;;;;4975139;28;20053;-75
2022/06/06 13:39:27;;;;;;;1.10;1.00;;;26.50;46.40;;;;;;4958004;28;20053;-74
2022/06/06 13:42:12;;;;;;;1.08;0.98;;;26.40;47.00;;;;;;4977391;28;20064;-73
2022/06/06 13:44:55;;;;;;;1.83;1.10;;;26.50;48.30;;;;;;4960814;28;20054;-73
2022/06/06 13:48:03;;;;;;;2.13;0.80;;;26.60;44.20;;;;;;4948900;28;20528;-75
2022/06/06 13:50:46;;;;;;;1.33;1.23;;;26.60;45.60;;;;;;4954437;28;22457;-75
2022/06/06 13:53:33;;;;;;;1.25;0.90;;;26.40;46.90;;;;;;4988366;28;20743;-75
2022/06/06 13:56:14;;;;;;;2.72;1.20;;;26.40;47.90;;;;;;4997606;28;20704;-75
2022/06/06 13:59:02;;;;;;;1.20;1.10;;;26.40;48.00;;;;;;4997704;28;20128;-74
2022/06/06 14:01:45;;;;;;;2.65;1.23;;;26.40;46.10;;;;;;5009696;28;20049;-74
2022/06/06 14:04:41;;;;;;;1.80;1.00;;;26.60;45.20;;;;;;4997872;28;20052;-75
2022/06/06 14:07:39;;;;;;;1.83;1.23;;;26.70;44.90;;;;;;5012092;28;21341;-75
2022/06/06 14:10:10;;;;;;;1.95;1.75;;;26.60;45.00;;;;;;4993500;28;20063;-75
2022/06/06 14:12:43;;;;;;;2.70;1.35;;;26.60;45.60;;;;;;4995609;28;20052;-76
2022/06/06 14:15:17;;;;;;;1.42;1.33;;;26.50;45.60;;;;;;4999572;28;20065;-75
2022/06/06 14:18:10;;;;;;;1.08;0.80;;;26.50;47.70;;;;;;5000559;28;20052;-75
2022/06/06 14:20:49;;;;;;;1.77;1.33;;;26.60;45.10;;;;;;4994223;28;20045;-74
2022/06/06 14:23:22;;;;;;;0.80;0.80;;;26.60;45.10;;;;;;4993492;28;20088;-75
2022/06/06 14:25:54;;;;;;;2.08;1.15;;;26.50;45.00;;;;;;5013820;28;20079;-75
2022/06/06 14:28:27;;;;;;;1.40;1.02;;;26.40;46.60;;;;;;5015897;28;20050;-76
2022/06/06 14:30:54;;;;;;;2.17;1.00;;;26.40;47.80;;;;;;5002294;28;20077;-75